sensor_id;sensor_type;location;lat;lon;timestamp;P1;durP1;ratioP1;P2;durP2;ratioP2
27313;SDS011;14800;48.174;9.798;2023-08-17T00:02:10;4.85;;;4.40;;
27313;SDS011;14800;48.174;9.798;2023-08-17T00:04:37;5.22;;;4.25;;
27313;SDS011;14800;48.174;9.798;2023-08-17T00:07:03;4.80;;;4.40;;
27313;SDS011;14800;48.174;9.798;2023-08-17T00:09:29;4.60;;;4.20;;
27313;SDS011;14800;48.174;9.798;2023-08-17T00:11:55;4.70;;;4.30;;
27313;SDS011;14800;48.174;9.798;2023-08-17T00:14:20;4.55;;;4.15;;
27313;SDS011;14800;48.174;9.798;2023-08-17T00:16:46;4.93;;;3.97;;
27313;SDS011;14800;48.174;9.798;2023-08-17T00:19:13;4.40;;;3.80;;
27313;SDS011;14800;48.174;9.798;2023-08-17T00:21:39;4.20;;;3.90;;
27313;SDS011;14800;48.174;9.798;2023-08-17T00:24:05;4.70;;;4.25;;
27313;SDS011;14800;48.174;9.798;2023-08-17T00:26:30;8.10;;;4.05;;
27313;SDS011;14800;48.174;9.798;2023-08-17T00:28:56;4.47;;;4.05;;
27313;SDS011;14800;48.174;9.798;2023-08-17T00:31:21;4.88;;;3.72;;
27313;SDS011;14800;48.174;9.798;2023-08-17T00:33:47;4.20;;;3.85;;
27313;SDS011;14800;48.174;9.798;2023-08-17T00:36:13;4.50;;;4.10;;
27313;SDS011;14800;48.174;9.798;2023-08-17T00:38:38;4.35;;;3.83;;
27313;SDS011;14800;48.174;9.798;2023-08-17T00:41:04;5.78;;;3.70;;
27313;SDS011;14800;48.174;9.798;2023-08-17T00:43:29;6.80;;;4.10;;
27313;SDS011;14800;48.174;9.798;2023-08-17T00:45:55;4.00;;;3.65;;
27313;SDS011;14800;48.174;9.798;2023-08-17T00:48:20;4.72;;;4.13;;
27313;SDS011;14800;48.174;9.798;2023-08-17T00:50:47;4.13;;;3.83;;
27313;SDS011;14800;48.174;9.798;2023-08-17T00:53:15;4.60;;;4.25;;
27313;SDS011;14800;48.174;9.798;2023-08-17T00:55:42;5.20;;;4.10;;
27313;SDS011;14800;48.174;9.798;2023-08-17T00:58:08;6.03;;;4.40;;
27313;SDS011;14800;48.174;9.798;2023-08-17T01:00:34;4.05;;;3.75;;
27313;SDS011;14800;48.174;9.798;2023-08-17T01:03:00;7.10;;;4.28;;
27313;SDS011;14800;48.174;9.798;2023-08-17T01:05:25;4.82;;;3.80;;
27313;SDS011;14800;48.174;9.798;2023-08-17T01:07:51;5.25;;;4.35;;
27313;SDS011;14800;48.174;9.798;2023-08-17T01:10:16;5.53;;;3.97;;
27313;SDS011;14800;48.174;9.798;2023-08-17T01:12:46;6.70;;;4.35;;
27313;SDS011;14800;48.174;9.798;2023-08-17T01:15:36;4.80;;;4.40;;
27313;SDS011;14800;48.174;9.798;2023-08-17T01:18:26;5.50;;;3.90;;
27313;SDS011;14800;48.174;9.798;2023-08-17T01:20:56;4.53;;;4.03;;
27313;SDS011;14800;48.174;9.798;2023-08-17T01:23:22;5.00;;;4.50;;
27313;SDS011;14800;48.174;9.798;2023-08-17T01:25:48;5.10;;;4.15;;
27313;SDS011;14800;48.174;9.798;2023-08-17T01:28:14;4.65;;;4.00;;
27313;SDS011;14800;48.174;9.798;2023-08-17T01:30:55;5.20;;;4.65;;
27313;SDS011;14800;48.174;9.798;2023-08-17T01:33:29;4.15;;;3.85;;
27313;SDS011;14800;48.174;9.798;2023-08-17T01:36:21;6.45;;;4.32;;
27313;SDS011;14800;48.174;9.798;2023-08-17T01:38:51;4.95;;;3.95;;
27313;SDS011;14800;48.174;9.798;2023-08-17T01:41:20;4.28;;;3.80;;
27313;SDS011;14800;48.174;9.798;2023-08-17T01:43:47;8.45;;;4.70;;
27313;SDS011;14800;48.174;9.798;2023-08-17T01:46:14;4.13;;;3.83;;
27313;SDS011;14800;48.174;9.798;2023-08-17T01:48:43;5.10;;;4.20;;
27313;SDS011;14800;48.174;9.798;2023-08-17T01:51:10;4.55;;;4.15;;
27313;SDS011;14800;48.174;9.798;2023-08-17T01:53:37;4.40;;;4.05;;
27313;SDS011;14800;48.174;9.798;2023-08-17T01:56:02;4.15;;;3.85;;
27313;SDS011;14800;48.174;9.798;2023-08-17T01:58:28;4.40;;;4.00;;
27313;SDS011;14800;48.174;9.798;2023-08-17T02:00:54;4.88;;;4.10;;
27313;SDS011;14800;48.174;9.798;2023-08-17T02:03:19;5.22;;;4.10;;
27313;SDS011;14800;48.174;9.798;2023-08-17T02:05:45;5.97;;;4.72;;
27313;SDS011;14800;48.174;9.798;2023-08-17T02:08:11;5.20;;;4.18;;
27313;SDS011;14800;48.174;9.798;2023-08-17T02:10:37;4.63;;;4.10;;
27313;SDS011;14800;48.174;9.798;2023-08-17T02:13:02;4.50;;;4.10;;
27313;SDS011;14800;48.174;9.798;2023-08-17T02:15:28;4.82;;;4.35;;
27313;SDS011;14800;48.174;9.798;2023-08-17T02:17:54;7.75;;;4.40;;
27313;SDS011;14800;48.174;9.798;2023-08-17T02:20:22;5.00;;;4.50;;
27313;SDS011;14800;48.174;9.798;2023-08-17T02:22:47;7.40;;;4.18;;
27313;SDS011;14800;48.174;9.798;2023-08-17T02:25:13;7.15;;;4.32;;
27313;SDS011;14800;48.174;9.798;2023-08-17T02:27:38;6.57;;;4.32;;
27313;SDS011;14800;48.174;9.798;2023-08-17T02:30:04;5.25;;;3.92;;
27313;SDS011;14800;48.174;9.798;2023-08-17T02:32:30;4.65;;;4.13;;
27313;SDS011;14800;48.174;9.798;2023-08-17T02:34:55;4.30;;;4.00;;
27313;SDS011;14800;48.174;9.798;2023-08-17T02:37:21;4.38;;;4.07;;
27313;SDS011;14800;48.174;9.798;2023-08-17T02:39:46;4.82;;;3.83;;
27313;SDS011;14800;48.174;9.798;2023-08-17T02:42:12;4.13;;;3.83;;
27313;SDS011;14800;48.174;9.798;2023-08-17T02:44:38;5.63;;;4.50;;
27313;SDS011;14800;48.174;9.798;2023-08-17T02:47:03;4.40;;;4.00;;
27313;SDS011;14800;48.174;9.798;2023-08-17T02:49:29;4.70;;;4.18;;
27313;SDS011;14800;48.174;9.798;2023-08-17T02:51:54;5.80;;;4.20;;
27313;SDS011;14800;48.174;9.798;2023-08-17T02:54:20;4.38;;;3.97;;
27313;SDS011;14800;48.174;9.798;2023-08-17T02:56:49;4.80;;;4.10;;
27313;SDS011;14800;48.174;9.798;2023-08-17T02:59:33;4.70;;;4.30;;
27313;SDS011;14800;48.174;9.798;2023-08-17T03:01:59;4.80;;;4.40;;
27313;SDS011;14800;48.174;9.798;2023-08-17T03:04:25;4.32;;;3.92;;
27313;SDS011;14800;48.174;9.798;2023-08-17T03:06:50;4.60;;;4.20;;
27313;SDS011;14800;48.174;9.798;2023-08-17T03:09:16;4.45;;;3.97;;
27313;SDS011;14800;48.174;9.798;2023-08-17T03:11:41;4.18;;;3.88;;
27313;SDS011;14800;48.174;9.798;2023-08-17T03:14:07;4.32;;;4.03;;
27313;SDS011;14800;48.174;9.798;2023-08-17T03:16:32;4.43;;;4.13;;
27313;SDS011;14800;48.174;9.798;2023-08-17T03:18:58;5.10;;;4.35;;
27313;SDS011;14800;48.174;9.798;2023-08-17T03:21:24;4.15;;;3.85;;
27313;SDS011;14800;48.174;9.798;2023-08-17T03:23:49;4.88;;;4.10;;
27313;SDS011;14800;48.174;9.798;2023-08-17T03:26:15;4.88;;;4.47;;
27313;SDS011;14800;48.174;9.798;2023-08-17T03:28:41;4.57;;;4.28;;
27313;SDS011;14800;48.174;9.798;2023-08-17T03:31:06;5.38;;;4.28;;
27313;SDS011;14800;48.174;9.798;2023-08-17T03:33:33;4.72;;;4.38;;
27313;SDS011;14800;48.174;9.798;2023-08-17T03:36:00;4.75;;;4.38;;
27313;SDS011;14800;48.174;9.798;2023-08-17T03:38:26;4.72;;;4.32;;
27313;SDS011;14800;48.174;9.798;2023-08-17T03:40:52;4.57;;;4.18;;
27313;SDS011;14800;48.174;9.798;2023-08-17T03:43:17;4.93;;;4.03;;
27313;SDS011;14800;48.174;9.798;2023-08-17T03:45:43;5.75;;;4.70;;
27313;SDS011;14800;48.174;9.798;2023-08-17T03:48:09;4.57;;;4.28;;
27313;SDS011;14800;48.174;9.798;2023-08-17T03:50:35;6.45;;;4.53;;
27313;SDS011;14800;48.174;9.798;2023-08-17T03:53:00;4.93;;;3.83;;
27313;SDS011;14800;48.174;9.798;2023-08-17T03:55:26;5.13;;;4.57;;
27313;SDS011;14800;48.174;9.798;2023-08-17T03:57:52;4.80;;;4.28;;
27313;SDS011;14800;48.174;9.798;2023-08-17T04:00:17;4.50;;;4.15;;
27313;SDS011;14800;48.174;9.798;2023-08-17T04:02:43;4.78;;;4.15;;
27313;SDS011;14800;48.174;9.798;2023-08-17T04:05:10;4.50;;;4.18;;
27313;SDS011;14800;48.174;9.798;2023-08-17T04:07:36;6.55;;;4.05;;
27313;SDS011;14800;48.174;9.798;2023-08-17T04:10:02;5.20;;;4.28;;
27313;SDS011;14800;48.174;9.798;2023-08-17T04:12:28;4.38;;;3.97;;
27313;SDS011;14800;48.174;9.798;2023-08-17T04:14:54;5.00;;;4.53;;
27313;SDS011;14800;48.174;9.798;2023-08-17T04:17:20;4.93;;;4.28;;
27313;SDS011;14800;48.174;9.798;2023-08-17T04:19:46;4.40;;;4.00;;
27313;SDS011;14800;48.174;9.798;2023-08-17T04:22:12;4.45;;;4.05;;
27313;SDS011;14800;48.174;9.798;2023-08-17T04:24:37;4.22;;;3.90;;
27313;SDS011;14800;48.174;9.798;2023-08-17T04:27:03;6.88;;;4.43;;
27313;SDS011;14800;48.174;9.798;2023-08-17T04:29:29;7.50;;;4.53;;
27313;SDS011;14800;48.174;9.798;2023-08-17T04:31:56;5.15;;;4.65;;
27313;SDS011;14800;48.174;9.798;2023-08-17T04:34:21;4.47;;;4.07;;
27313;SDS011;14800;48.174;9.798;2023-08-17T04:36:47;4.68;;;3.90;;
27313;SDS011;14800;48.174;9.798;2023-08-17T04:39:12;4.10;;;3.80;;
27313;SDS011;14800;48.174;9.798;2023-08-17T04:41:38;5.65;;;3.97;;
27313;SDS011;14800;48.174;9.798;2023-08-17T04:44:04;4.47;;;4.07;;
27313;SDS011;14800;48.174;9.798;2023-08-17T04:46:30;5.40;;;4.07;;
27313;SDS011;14800;48.174;9.798;2023-08-17T04:48:55;4.65;;;4.22;;
27313;SDS011;14800;48.174;9.798;2023-08-17T04:51:21;4.40;;;4.00;;
27313;SDS011;14800;48.174;9.798;2023-08-17T04:53:46;5.13;;;4.63;;
27313;SDS011;14800;48.174;9.798;2023-08-17T04:56:12;4.63;;;4.22;;
27313;SDS011;14800;48.174;9.798;2023-08-17T04:58:38;5.05;;;4.55;;
27313;SDS011;14800;48.174;9.798;2023-08-17T05:01:03;6.93;;;4.22;;
27313;SDS011;14800;48.174;9.798;2023-08-17T05:03:29;4.95;;;4.55;;
27313;SDS011;14800;48.174;9.798;2023-08-17T05:05:56;6.18;;;4.80;;
27313;SDS011;14800;48.174;9.798;2023-08-17T05:08:21;4.80;;;4.40;;
27313;SDS011;14800;48.174;9.798;2023-08-17T05:10:47;5.03;;;4.63;;
27313;SDS011;14800;48.174;9.798;2023-08-17T05:13:13;4.68;;;4.28;;
27313;SDS011;14800;48.174;9.798;2023-08-17T05:15:39;5.20;;;4.70;;
27313;SDS011;14800;48.174;9.798;2023-08-17T05:18:04;4.88;;;4.47;;
27313;SDS011;14800;48.174;9.798;2023-08-17T05:20:30;5.65;;;5.00;;
27313;SDS011;14800;48.174;9.798;2023-08-17T05:22:56;5.93;;;4.22;;
27313;SDS011;14800;48.174;9.798;2023-08-17T05:25:21;4.68;;;4.28;;
27313;SDS011;14800;48.174;9.798;2023-08-17T05:27:47;5.47;;;4.70;;
27313;SDS011;14800;48.174;9.798;2023-08-17T05:30:15;4.95;;;4.43;;
27313;SDS011;14800;48.174;9.798;2023-08-17T05:32:40;5.20;;;4.80;;
27313;SDS011;14800;48.174;9.798;2023-08-17T05:35:06;4.38;;;3.97;;
27313;SDS011;14800;48.174;9.798;2023-08-17T05:37:32;4.30;;;3.90;;
27313;SDS011;14800;48.174;9.798;2023-08-17T05:39:58;4.25;;;3.88;;
27313;SDS011;14800;48.174;9.798;2023-08-17T05:42:23;5.55;;;5.10;;
27313;SDS011;14800;48.174;9.798;2023-08-17T05:44:49;5.78;;;5.28;;
27313;SDS011;14800;48.174;9.798;2023-08-17T05:47:15;5.78;;;5.28;;
27313;SDS011;14800;48.174;9.798;2023-08-17T05:49:42;6.35;;;5.70;;
27313;SDS011;14800;48.174;9.798;2023-08-17T05:52:08;6.35;;;5.75;;
27313;SDS011;14800;48.174;9.798;2023-08-17T05:54:34;6.28;;;5.72;;
27313;SDS011;14800;48.174;9.798;2023-08-17T05:57:00;7.15;;;5.95;;
27313;SDS011;14800;48.174;9.798;2023-08-17T05:59:28;6.75;;;6.15;;
27313;SDS011;14800;48.174;9.798;2023-08-17T06:01:53;6.63;;;6.03;;
27313;SDS011;14800;48.174;9.798;2023-08-17T06:04:19;7.07;;;5.68;;
27313;SDS011;14800;48.174;9.798;2023-08-17T06:06:46;6.50;;;5.90;;
27313;SDS011;14800;48.174;9.798;2023-08-17T06:09:11;8.52;;;6.35;;
27313;SDS011;14800;48.174;9.798;2023-08-17T06:11:37;8.02;;;6.60;;
27313;SDS011;14800;48.174;9.798;2023-08-17T06:14:03;7.93;;;7.18;;
27313;SDS011;14800;48.174;9.798;2023-08-17T06:16:29;7.00;;;6.30;;
27313;SDS011;14800;48.174;9.798;2023-08-17T06:18:54;7.70;;;6.93;;
27313;SDS011;14800;48.174;9.798;2023-08-17T06:21:20;7.65;;;6.90;;
27313;SDS011;14800;48.174;9.798;2023-08-17T06:23:46;8.52;;;6.57;;
27313;SDS011;14800;48.174;9.798;2023-08-17T06:26:15;9.30;;;6.75;;
27313;SDS011;14800;48.174;9.798;2023-08-17T06:28:40;8.93;;;7.47;;
27313;SDS011;14800;48.174;9.798;2023-08-17T06:31:06;8.40;;;6.75;;
27313;SDS011;14800;48.174;9.798;2023-08-17T06:33:31;7.90;;;6.38;;
27313;SDS011;14800;48.174;9.798;2023-08-17T06:35:57;10.13;;;7.10;;
27313;SDS011;14800;48.174;9.798;2023-08-17T06:38:23;10.05;;;7.07;;
27313;SDS011;14800;48.174;9.798;2023-08-17T06:40:48;12.48;;;7.28;;
27313;SDS011;14800;48.174;9.798;2023-08-17T06:43:14;11.45;;;7.80;;
27313;SDS011;14800;48.174;9.798;2023-08-17T06:45:39;12.05;;;7.25;;
27313;SDS011;14800;48.174;9.798;2023-08-17T06:48:05;12.93;;;7.30;;
27313;SDS011;14800;48.174;9.798;2023-08-17T06:50:31;9.10;;;6.88;;
27313;SDS011;14800;48.174;9.798;2023-08-17T06:52:57;14.15;;;6.88;;
27313;SDS011;14800;48.174;9.798;2023-08-17T06:55:22;10.25;;;6.90;;
27313;SDS011;14800;48.174;9.798;2023-08-17T06:57:48;15.48;;;7.03;;
27313;SDS011;14800;48.174;9.798;2023-08-17T07:00:16;10.77;;;7.72;;
27313;SDS011;14800;48.174;9.798;2023-08-17T07:02:45;10.02;;;8.15;;
27313;SDS011;14800;48.174;9.798;2023-08-17T07:05:14;10.90;;;8.13;;
27313;SDS011;14800;48.174;9.798;2023-08-17T07:07:40;11.68;;;7.88;;
27313;SDS011;14800;48.174;9.798;2023-08-17T07:10:07;12.07;;;8.07;;
27313;SDS011;14800;48.174;9.798;2023-08-17T07:12:33;9.50;;;7.10;;
27313;SDS011;14800;48.174;9.798;2023-08-17T07:14:59;13.75;;;8.32;;
27313;SDS011;14800;48.174;9.798;2023-08-17T07:17:24;8.40;;;7.60;;
27313;SDS011;14800;48.174;9.798;2023-08-17T07:19:50;8.10;;;7.35;;
27313;SDS011;14800;48.174;9.798;2023-08-17T07:22:15;7.65;;;6.85;;
27313;SDS011;14800;48.174;9.798;2023-08-17T07:24:41;8.35;;;7.55;;
27313;SDS011;14800;48.174;9.798;2023-08-17T07:27:07;6.80;;;6.18;;
27313;SDS011;14800;48.174;9.798;2023-08-17T07:29:33;10.77;;;6.13;;
27313;SDS011;14800;48.174;9.798;2023-08-17T07:31:58;7.57;;;6.43;;
27313;SDS011;14800;48.174;9.798;2023-08-17T07:34:27;7.70;;;6.40;;
27313;SDS011;14800;48.174;9.798;2023-08-17T07:36:53;6.25;;;5.53;;
27313;SDS011;14800;48.174;9.798;2023-08-17T07:39:18;6.80;;;4.65;;
27313;SDS011;14800;48.174;9.798;2023-08-17T07:41:44;5.32;;;4.82;;
27313;SDS011;14800;48.174;9.798;2023-08-17T07:44:09;6.45;;;5.85;;
27313;SDS011;14800;48.174;9.798;2023-08-17T07:46:36;8.73;;;6.80;;
27313;SDS011;14800;48.174;9.798;2023-08-17T07:49:01;6.15;;;5.57;;
27313;SDS011;14800;48.174;9.798;2023-08-17T07:51:27;6.03;;;5.53;;
27313;SDS011;14800;48.174;9.798;2023-08-17T07:53:55;5.15;;;4.75;;
27313;SDS011;14800;48.174;9.798;2023-08-17T07:56:20;4.85;;;4.28;;
27313;SDS011;14800;48.174;9.798;2023-08-17T07:58:46;4.63;;;4.28;;
27313;SDS011;14800;48.174;9.798;2023-08-17T08:01:11;5.35;;;4.32;;
27313;SDS011;14800;48.174;9.798;2023-08-17T08:03:37;5.32;;;4.72;;
27313;SDS011;14800;48.174;9.798;2023-08-17T08:06:02;5.18;;;4.75;;
27313;SDS011;14800;48.174;9.798;2023-08-17T08:08:28;5.40;;;4.85;;
27313;SDS011;14800;48.174;9.798;2023-08-17T08:10:53;5.25;;;4.75;;
27313;SDS011;14800;48.174;9.798;2023-08-17T08:13:20;6.03;;;4.88;;
27313;SDS011;14800;48.174;9.798;2023-08-17T08:15:45;4.82;;;4.38;;
27313;SDS011;14800;48.174;9.798;2023-08-17T08:18:11;4.03;;;3.72;;
27313;SDS011;14800;48.174;9.798;2023-08-17T08:20:37;5.53;;;5.03;;
27313;SDS011;14800;48.174;9.798;2023-08-17T08:23:03;7.72;;;4.25;;
27313;SDS011;14800;48.174;9.798;2023-08-17T08:25:28;5.95;;;4.50;;
27313;SDS011;14800;48.174;9.798;2023-08-17T08:27:54;4.53;;;4.13;;
27313;SDS011;14800;48.174;9.798;2023-08-17T08:30:20;5.80;;;5.30;;
27313;SDS011;14800;48.174;9.798;2023-08-17T08:32:45;5.45;;;4.80;;
27313;SDS011;14800;48.174;9.798;2023-08-17T08:35:11;5.32;;;4.60;;
27313;SDS011;14800;48.174;9.798;2023-08-17T08:37:36;5.75;;;4.88;;
27313;SDS011;14800;48.174;9.798;2023-08-17T08:40:02;6.30;;;5.38;;
27313;SDS011;14800;48.174;9.798;2023-08-17T08:42:28;7.20;;;5.47;;
27313;SDS011;14800;48.174;9.798;2023-08-17T08:44:54;9.93;;;5.32;;
27313;SDS011;14800;48.174;9.798;2023-08-17T08:47:20;5.13;;;4.63;;
27313;SDS011;14800;48.174;9.798;2023-08-17T08:49:50;6.00;;;4.97;;
27313;SDS011;14800;48.174;9.798;2023-08-17T08:52:26;5.40;;;4.90;;
27313;SDS011;14800;48.174;9.798;2023-08-17T08:55:02;6.28;;;5.60;;
27313;SDS011;14800;48.174;9.798;2023-08-17T08:57:34;6.20;;;5.60;;
27313;SDS011;14800;48.174;9.798;2023-08-17T09:00:01;5.55;;;5.05;;
27313;SDS011;14800;48.174;9.798;2023-08-17T09:02:28;5.50;;;4.97;;
27313;SDS011;14800;48.174;9.798;2023-08-17T09:04:55;5.65;;;4.88;;
27313;SDS011;14800;48.174;9.798;2023-08-17T09:07:22;7.80;;;5.45;;
27313;SDS011;14800;48.174;9.798;2023-08-17T09:09:48;6.70;;;5.68;;
27313;SDS011;14800;48.174;9.798;2023-08-17T09:12:14;7.22;;;5.72;;
27313;SDS011;14800;48.174;9.798;2023-08-17T09:14:39;6.55;;;5.25;;
27313;SDS011;14800;48.174;9.798;2023-08-17T09:17:06;5.47;;;4.95;;
27313;SDS011;14800;48.174;9.798;2023-08-17T09:19:32;6.82;;;5.43;;
27313;SDS011;14800;48.174;9.798;2023-08-17T09:21:58;6.07;;;5.28;;
27313;SDS011;14800;48.174;9.798;2023-08-17T09:24:25;6.20;;;5.47;;
27313;SDS011;14800;48.174;9.798;2023-08-17T09:26:59;6.90;;;5.30;;
27313;SDS011;14800;48.174;9.798;2023-08-17T09:29:25;6.90;;;5.32;;
27313;SDS011;14800;48.174;9.798;2023-08-17T09:31:51;7.97;;;5.07;;
27313;SDS011;14800;48.174;9.798;2023-08-17T09:34:16;6.53;;;5.32;;
27313;SDS011;14800;48.174;9.798;2023-08-17T09:36:45;6.43;;;5.25;;
27313;SDS011;14800;48.174;9.798;2023-08-17T09:39:12;6.22;;;5.63;;
27313;SDS011;14800;48.174;9.798;2023-08-17T09:41:38;6.93;;;5.68;;
27313;SDS011;14800;48.174;9.798;2023-08-17T09:44:06;6.35;;;4.68;;
27313;SDS011;14800;48.174;9.798;2023-08-17T09:46:32;6.85;;;5.43;;
27313;SDS011;14800;48.174;9.798;2023-08-17T09:48:58;5.28;;;4.78;;
27313;SDS011;14800;48.174;9.798;2023-08-17T09:51:24;6.50;;;5.07;;
27313;SDS011;14800;48.174;9.798;2023-08-17T09:53:53;9.02;;;6.15;;
27313;SDS011;14800;48.174;9.798;2023-08-17T09:56:20;9.48;;;6.30;;
27313;SDS011;14800;48.174;9.798;2023-08-17T09:58:48;6.50;;;5.80;;
27313;SDS011;14800;48.174;9.798;2023-08-17T10:01:14;5.45;;;5.05;;
27313;SDS011;14800;48.174;9.798;2023-08-17T10:03:43;5.65;;;5.00;;
27313;SDS011;14800;48.174;9.798;2023-08-17T10:06:12;5.45;;;4.25;;
27313;SDS011;14800;48.174;9.798;2023-08-17T10:08:42;3.92;;;3.60;;
27313;SDS011;14800;48.174;9.798;2023-08-17T10:11:08;5.20;;;4.55;;
27313;SDS011;14800;48.174;9.798;2023-08-17T10:13:46;4.72;;;4.18;;
27313;SDS011;14800;48.174;9.798;2023-08-17T10:21:35;5.72;;;3.63;;
27313;SDS011;14800;48.174;9.798;2023-08-17T10:24:04;4.40;;;3.60;;
27313;SDS011;14800;48.174;9.798;2023-08-17T10:26:32;4.90;;;3.72;;
27313;SDS011;14800;48.174;9.798;2023-08-17T10:28:58;3.38;;;3.17;;
27313;SDS011;14800;48.174;9.798;2023-08-17T10:31:26;3.22;;;2.90;;
27313;SDS011;14800;48.174;9.798;2023-08-17T10:33:53;3.40;;;3.10;;
27313;SDS011;14800;48.174;9.798;2023-08-17T10:36:19;3.30;;;2.85;;
27313;SDS011;14800;48.174;9.798;2023-08-17T10:38:45;3.45;;;3.03;;
27313;SDS011;14800;48.174;9.798;2023-08-17T10:41:12;5.60;;;3.08;;
27313;SDS011;14800;48.174;9.798;2023-08-17T10:43:54;4.55;;;2.50;;
27313;SDS011;14800;48.174;9.798;2023-08-17T10:46:21;3.08;;;2.78;;
27313;SDS011;14800;48.174;9.798;2023-08-17T10:48:46;2.83;;;2.63;;
27313;SDS011;14800;48.174;9.798;2023-08-17T10:51:12;3.05;;;2.75;;
27313;SDS011;14800;48.174;9.798;2023-08-17T10:53:38;3.45;;;2.50;;
27313;SDS011;14800;48.174;9.798;2023-08-17T10:56:11;2.97;;;2.60;;
27313;SDS011;14800;48.174;9.798;2023-08-17T10:58:42;5.22;;;3.22;;
27313;SDS011;14800;48.174;9.798;2023-08-17T11:01:08;3.53;;;3.22;;
27313;SDS011;14800;48.174;9.798;2023-08-17T11:03:34;2.97;;;2.78;;
27313;SDS011;14800;48.174;9.798;2023-08-17T11:06:13;4.93;;;2.63;;
27313;SDS011;14800;48.174;9.798;2023-08-17T11:08:51;3.67;;;2.47;;
27313;SDS011;14800;48.174;9.798;2023-08-17T11:11:21;2.88;;;2.67;;
27313;SDS011;14800;48.174;9.798;2023-08-17T11:13:48;3.65;;;2.75;;
27313;SDS011;14800;48.174;9.798;2023-08-17T11:16:15;2.65;;;2.33;;
27313;SDS011;14800;48.174;9.798;2023-08-17T11:18:41;3.28;;;2.60;;
27313;SDS011;14800;48.174;9.798;2023-08-17T11:21:09;3.22;;;2.60;;
27313;SDS011;14800;48.174;9.798;2023-08-17T11:23:36;2.63;;;2.42;;
27313;SDS011;14800;48.174;9.798;2023-08-17T11:26:02;4.30;;;2.28;;
27313;SDS011;14800;48.174;9.798;2023-08-17T11:28:32;2.50;;;2.30;;
27313;SDS011;14800;48.174;9.798;2023-08-17T11:31:05;2.85;;;2.50;;
27313;SDS011;14800;48.174;9.798;2023-08-17T11:33:33;3.30;;;3.00;;
27313;SDS011;14800;48.174;9.798;2023-08-17T11:36:00;3.42;;;2.28;;
27313;SDS011;14800;48.174;9.798;2023-08-17T11:38:31;2.70;;;2.50;;
27313;SDS011;14800;48.174;9.798;2023-08-17T11:40:57;2.85;;;2.65;;
27313;SDS011;14800;48.174;9.798;2023-08-17T11:43:24;2.95;;;2.60;;
27313;SDS011;14800;48.174;9.798;2023-08-17T11:45:51;3.25;;;2.60;;
27313;SDS011;14800;48.174;9.798;2023-08-17T11:48:18;3.58;;;2.80;;
27313;SDS011;14800;48.174;9.798;2023-08-17T11:50:44;3.75;;;2.75;;
27313;SDS011;14800;48.174;9.798;2023-08-17T11:53:10;2.60;;;2.40;;
27313;SDS011;14800;48.174;9.798;2023-08-17T11:55:36;2.67;;;2.47;;
27313;SDS011;14800;48.174;9.798;2023-08-17T11:58:02;4.03;;;2.55;;
27313;SDS011;14800;48.174;9.798;2023-08-17T12:00:33;2.95;;;2.47;;
27313;SDS011;14800;48.174;9.798;2023-08-17T12:03:12;2.70;;;2.50;;
27313;SDS011;14800;48.174;9.798;2023-08-17T12:05:39;3.97;;;2.60;;
27313;SDS011;14800;48.174;9.798;2023-08-17T12:08:07;3.45;;;2.67;;
27313;SDS011;14800;48.174;9.798;2023-08-17T12:10:33;2.92;;;2.63;;
27313;SDS011;14800;48.174;9.798;2023-08-17T12:12:59;2.60;;;2.40;;
27313;SDS011;14800;48.174;9.798;2023-08-17T12:15:35;3.67;;;2.38;;
27313;SDS011;14800;48.174;9.798;2023-08-17T12:18:04;3.03;;;2.47;;
27313;SDS011;14800;48.174;9.798;2023-08-17T12:20:30;3.08;;;2.75;;
27313;SDS011;14800;48.174;9.798;2023-08-17T12:23:00;2.70;;;2.50;;
27313;SDS011;14800;48.174;9.798;2023-08-17T12:25:27;4.05;;;2.60;;
27313;SDS011;14800;48.174;9.798;2023-08-17T12:27:53;5.38;;;2.30;;
27313;SDS011;14800;48.174;9.798;2023-08-17T12:32:50;3.05;;;2.45;;
27313;SDS011;14800;48.174;9.798;2023-08-17T12:35:15;3.65;;;2.90;;
27313;SDS011;14800;48.174;9.798;2023-08-17T12:37:41;5.22;;;2.80;;
27313;SDS011;14800;48.174;9.798;2023-08-17T12:40:06;2.80;;;2.50;;
27313;SDS011;14800;48.174;9.798;2023-08-17T12:42:33;2.70;;;2.30;;
27313;SDS011;14800;48.174;9.798;2023-08-17T12:44:58;2.95;;;2.63;;
27313;SDS011;14800;48.174;9.798;2023-08-17T12:47:24;2.88;;;2.60;;
27313;SDS011;14800;48.174;9.798;2023-08-17T12:49:50;3.63;;;2.85;;
27313;SDS011;14800;48.174;9.798;2023-08-17T12:52:15;6.38;;;2.75;;
27313;SDS011;14800;48.174;9.798;2023-08-17T12:54:41;5.40;;;2.60;;
27313;SDS011;14800;48.174;9.798;2023-08-17T12:57:06;4.05;;;3.15;;
27313;SDS011;14800;48.174;9.798;2023-08-17T12:59:32;2.92;;;2.63;;
27313;SDS011;14800;48.174;9.798;2023-08-17T13:01:58;4.22;;;2.65;;
27313;SDS011;14800;48.174;9.798;2023-08-17T13:04:23;5.28;;;2.90;;
27313;SDS011;14800;48.174;9.798;2023-08-17T13:06:49;3.28;;;2.67;;
27313;SDS011;14800;48.174;9.798;2023-08-17T13:09:16;2.55;;;2.40;;
27313;SDS011;14800;48.174;9.798;2023-08-17T13:11:43;3.17;;;2.58;;
27313;SDS011;14800;48.174;9.798;2023-08-17T13:14:09;3.40;;;2.50;;
27313;SDS011;14800;48.174;9.798;2023-08-17T13:16:35;2.70;;;1.92;;
27313;SDS011;14800;48.174;9.798;2023-08-17T13:19:00;5.40;;;1.90;;
27313;SDS011;14800;48.174;9.798;2023-08-17T13:21:26;4.13;;;1.88;;
27313;SDS011;14800;48.174;9.798;2023-08-17T13:23:52;4.68;;;2.10;;
27313;SDS011;14800;48.174;9.798;2023-08-17T13:26:17;7.10;;;1.90;;
27313;SDS011;14800;48.174;9.798;2023-08-17T13:28:43;4.60;;;1.80;;
27313;SDS011;14800;48.174;9.798;2023-08-17T13:31:08;5.43;;;1.80;;
27313;SDS011;14800;48.174;9.798;2023-08-17T13:33:34;2.70;;;1.70;;
27313;SDS011;14800;48.174;9.798;2023-08-17T13:36:00;4.88;;;1.95;;
27313;SDS011;14800;48.174;9.798;2023-08-17T13:38:25;4.57;;;2.20;;
27313;SDS011;14800;48.174;9.798;2023-08-17T13:40:51;4.45;;;1.85;;
27313;SDS011;14800;48.174;9.798;2023-08-17T13:43:16;2.83;;;1.90;;
27313;SDS011;14800;48.174;9.798;2023-08-17T13:45:42;2.88;;;1.80;;
27313;SDS011;14800;48.174;9.798;2023-08-17T13:48:07;13.48;;;2.25;;
27313;SDS011;14800;48.174;9.798;2023-08-17T13:50:34;9.25;;;2.40;;
27313;SDS011;14800;48.174;9.798;2023-08-17T13:53:02;7.50;;;2.47;;
27313;SDS011;14800;48.174;9.798;2023-08-17T13:55:28;6.88;;;2.70;;
27313;SDS011;14800;48.174;9.798;2023-08-17T13:57:55;7.72;;;2.53;;
27313;SDS011;14800;48.174;9.798;2023-08-17T14:00:21;6.68;;;2.65;;
27313;SDS011;14800;48.174;9.798;2023-08-17T14:02:47;8.98;;;2.80;;
27313;SDS011;14800;48.174;9.798;2023-08-17T14:05:13;4.22;;;2.17;;
27313;SDS011;14800;48.174;9.798;2023-08-17T14:07:38;5.55;;;2.33;;
27313;SDS011;14800;48.174;9.798;2023-08-17T14:10:04;8.43;;;2.72;;
27313;SDS011;14800;48.174;9.798;2023-08-17T14:12:30;7.95;;;2.28;;
27313;SDS011;14800;48.174;9.798;2023-08-17T14:14:55;4.97;;;2.45;;
27313;SDS011;14800;48.174;9.798;2023-08-17T14:17:21;3.72;;;2.38;;
27313;SDS011;14800;48.174;9.798;2023-08-17T14:19:47;6.25;;;2.42;;
27313;SDS011;14800;48.174;9.798;2023-08-17T14:22:12;4.15;;;2.33;;
27313;SDS011;14800;48.174;9.798;2023-08-17T14:24:38;7.38;;;2.40;;
27313;SDS011;14800;48.174;9.798;2023-08-17T14:27:03;5.97;;;3.05;;
27313;SDS011;14800;48.174;9.798;2023-08-17T14:29:29;4.85;;;2.70;;
27313;SDS011;14800;48.174;9.798;2023-08-17T14:31:54;5.75;;;2.90;;
27313;SDS011;14800;48.174;9.798;2023-08-17T14:34:20;4.20;;;2.25;;
27313;SDS011;14800;48.174;9.798;2023-08-17T14:36:46;6.15;;;2.67;;
27313;SDS011;14800;48.174;9.798;2023-08-17T14:39:12;3.95;;;2.42;;
27313;SDS011;14800;48.174;9.798;2023-08-17T14:41:37;5.05;;;2.28;;
27313;SDS011;14800;48.174;9.798;2023-08-17T14:44:03;3.92;;;2.50;;
27313;SDS011;14800;48.174;9.798;2023-08-17T14:46:29;7.63;;;2.50;;
27313;SDS011;14800;48.174;9.798;2023-08-17T14:48:55;5.70;;;2.90;;
27313;SDS011;14800;48.174;9.798;2023-08-17T14:51:20;6.95;;;2.58;;
27313;SDS011;14800;48.174;9.798;2023-08-17T14:53:46;9.35;;;2.85;;